Evadale, TX

9:26 PM CDT on July 26, 2016 (GMT -0500)
Silsbee Meteorological Center | | Change Station

Elev 85 ft 30.38 °N, 94.17 °W | Updated 32 seconds ago

Scattered Clouds
Scattered Clouds
77.2 °F
Feels Like 79 °F
N
0.0
Wind Variable Wind from NNW
Gusts 0.0 mph

Today
High -- | Low -- °F
--% Chance of Precip.
Yesterday
High -- | Low -- °F
Precip. -- in
Pressure 29.93 in
Visibility 10.0 miles
Clouds Scattered Clouds 10000 ft
Heat Index 79 °F
Dew Point 75 °F
Humidity 92%
Rainfall 0.17 in
Snow Depth Not available.
6:31 AM 8:13 PM
Waning Gibbous, 48% visible
METAR KBMT 270215Z AUTO 20005KT 10SM SCT100 27/24 A2993 RMK AO2 LTG DSNT NE T02700240
Pressure 29.93 in
Visibility 10.0 miles
Clouds Scattered Clouds 10000 ft
Heat Index 79 °F
Dew Point 75 °F
Humidity 92%
Rainfall 0.17 in
Snow Depth Not available.
6:31 AM 8:13 PM
Waning Gibbous, 48% visible
METAR KBMT 270215Z AUTO 20005KT 10SM SCT100 27/24 A2993 RMK AO2 LTG DSNT NE T02700240

10-Day Weather Forecast

Almanac

Astronomy

Jul. 26, 2016 Rise Set
Actual Time
Civil Twilight
Nautical Twilight
Astronomical Twilight
Moon
Length of Visible Light
Length of Day
Tomorrow will be .
, % of the Moon is Illuminated

Today's Extremes

State Highs State Lows

Community

WunderPhotos

Upload Photos

1,927,777 photos uploaded!

WunderBlog® & News

Nearby

Air Quality

  Air Quality AQ Index Pollutant
Not available.

Snow Depth

Station Depth Elevation

Earthquake Activity

City Distance Mag. Time & Date
Minimum magnitude displayed is 2.5.

Coastal Water Temperatures

Place Temperature

Stations

Nearby Weather Stations

Station Location Temp. Windchill Dew Point Humidity Wind Precip. Elev Updated Type
                   

Watches & Warnings

There are currently no watches in effect.